createdAt,value
2022-11-29T00:01:26.800Z,1.93
2022-11-29T00:03:54.962Z,1.93
2022-11-29T00:06:24.436Z,1.93
2022-11-29T00:08:51.088Z,1.94
2022-11-29T00:11:37.777Z,1.97
2022-11-29T00:14:06.050Z,1.97
2022-11-29T00:16:32.718Z,1.95
2022-11-29T00:18:59.671Z,1.92
2022-11-29T00:21:26.333Z,1.92
2022-11-29T00:23:53.113Z,2.05
2022-11-29T00:26:19.821Z,1.96
2022-11-29T00:28:46.447Z,1.97
2022-11-29T00:31:15.904Z,1.96
2022-11-29T00:33:42.825Z,1.97
2022-11-29T00:36:09.895Z,1.97
2022-11-29T00:38:36.921Z,1.96
2022-11-29T00:41:03.679Z,1.97
2022-11-29T00:43:30.370Z,1.99
2022-11-29T00:45:57.472Z,1.95
2022-11-29T00:48:24.505Z,1.98
2022-11-29T00:50:51.214Z,1.99
2022-11-29T00:53:17.840Z,1.97
2022-11-29T00:55:45.298Z,1.98
2022-11-29T00:58:11.911Z,2.01
2022-11-29T01:00:38.654Z,2.02
2022-11-29T01:03:05.279Z,2.01
2022-11-29T01:05:32.630Z,2.01
2022-11-29T01:07:59.633Z,1.99
2022-11-29T01:10:27.550Z,2.03
2022-11-29T01:12:55.269Z,2.03
2022-11-29T01:15:21.948Z,2.05
2022-11-29T01:17:49.485Z,2.10
2022-11-29T01:20:16.624Z,2.10
2022-11-29T01:22:43.466Z,2.04
2022-11-29T01:25:11.972Z,2.06
2022-11-29T01:27:38.736Z,2.07
2022-11-29T01:30:07.145Z,2.10
2022-11-29T01:32:34.556Z,2.07
2022-11-29T01:35:01.311Z,2.02
2022-11-29T01:37:31.795Z,2.08
2022-11-29T01:39:58.457Z,2.07
2022-11-29T01:42:25.096Z,2.09
2022-11-29T01:45:01.793Z,2.11
2022-11-29T01:47:29.264Z,2.12
2022-11-29T01:49:56.161Z,2.11
2022-11-29T01:52:27.561Z,2.13
2022-11-29T01:54:58.546Z,2.12
2022-11-29T01:57:26.567Z,2.12
2022-11-29T02:00:00.658Z,2.10
2022-11-29T02:02:32.678Z,2.12
2022-11-29T02:05:02.047Z,2.12
2022-11-29T02:07:28.742Z,2.12
2022-11-29T02:09:55.370Z,2.09
2022-11-29T02:12:38.300Z,2.09
2022-11-29T02:15:09.974Z,2.08
2022-11-29T02:17:48.961Z,2.10
2022-11-29T02:20:28.607Z,2.13
2022-11-29T02:23:19.037Z,2.11
2022-11-29T02:25:59.049Z,2.10
2022-11-29T02:28:55.510Z,2.09
2022-11-29T02:31:30.442Z,2.07
2022-11-29T02:34:28.518Z,2.06
2022-11-29T02:37:15.115Z,2.05
2022-11-29T02:40:09.844Z,2.07
2022-11-29T02:42:54.358Z,2.04
2022-11-29T02:45:53.544Z,2.04
2022-11-29T02:48:20.221Z,2.05
2022-11-29T02:50:57.994Z,2.06
2022-11-29T02:53:39.979Z,2.05
2022-11-29T02:56:22.945Z,2.05
2022-11-29T02:58:59.874Z,2.06
2022-11-29T03:01:39.921Z,2.07
2022-11-29T03:04:21.885Z,2.07
2022-11-29T03:07:15.562Z,2.06
2022-11-29T03:09:56.290Z,2.07
2022-11-29T03:12:30.420Z,2.04
2022-11-29T03:15:16.971Z,2.00
2022-11-29T03:17:55.501Z,2.02
2022-11-29T03:20:28.014Z,2.06
2022-11-29T03:23:15.242Z,2.06
2022-11-29T03:25:50.171Z,2.00
2022-11-29T03:28:47.358Z,2.04
2022-11-29T03:31:34.134Z,2.03
2022-11-29T03:34:21.650Z,2.03
2022-11-29T03:37:03.669Z,1.98
2022-11-29T03:39:45.650Z,1.98
2022-11-29T03:42:19.862Z,1.96
2022-11-29T03:44:57.317Z,1.96
2022-11-29T03:47:31.261Z,1.99
2022-11-29T03:50:01.582Z,1.98
2022-11-29T03:52:33.398Z,1.99
2022-11-29T03:55:01.020Z,2.00
2022-11-29T03:57:38.034Z,2.00
2022-11-29T04:00:11.701Z,1.99
2022-11-29T04:02:53.787Z,2.01
2022-11-29T04:05:28.261Z,2.00
2022-11-29T04:08:25.360Z,2.01
2022-11-29T04:11:27.227Z,2.00
2022-11-29T04:14:20.874Z,2.02
2022-11-29T04:17:20.055Z,2.03
2022-11-29T04:20:03.121Z,1.99
2022-11-29T04:22:56.465Z,2.00
2022-11-29T04:25:48.862Z,1.94
2022-11-29T04:28:47.264Z,1.97
2022-11-29T04:31:33.714Z,1.98
2022-11-29T04:34:28.571Z,1.96
2022-11-29T04:37:27.209Z,1.98
2022-11-29T04:40:09.172Z,1.99
2022-11-29T04:42:42.664Z,2.00
2022-11-29T04:45:39.739Z,1.97
2022-11-29T04:48:36.867Z,2.04
2022-11-29T04:51:25.118Z,1.97
2022-11-29T04:54:12.620Z,2.03
2022-11-29T04:56:45.170Z,2.02
2022-11-29T04:59:25.447Z,2.03
2022-11-29T05:02:07.226Z,2.00
2022-11-29T05:04:53.288Z,2.02
2022-11-29T05:07:35.237Z,2.02
2022-11-29T05:10:17.234Z,2.02
2022-11-29T05:13:14.738Z,1.99
2022-11-29T05:16:00.109Z,1.98
2022-11-29T05:18:36.317Z,1.97
2022-11-29T05:21:32.445Z,2.02
2022-11-29T05:24:34.254Z,1.98
2022-11-29T05:27:18.190Z,2.06
2022-11-29T05:30:01.311Z,2.01
2022-11-29T05:32:38.477Z,2.03
2022-11-29T05:35:35.731Z,2.00
2022-11-29T05:38:29.608Z,1.97
2022-11-29T05:41:12.599Z,1.98
2022-11-29T05:43:55.427Z,1.97
2022-11-29T05:46:23.090Z,1.97
2022-11-29T05:49:00.373Z,1.95
2022-11-29T05:51:29.143Z,1.97
2022-11-29T05:54:11.932Z,1.96
2022-11-29T05:56:54.845Z,1.96
2022-11-29T05:59:26.513Z,1.96
2022-11-29T06:01:53.548Z,1.94
2022-11-29T06:04:29.235Z,1.91
2022-11-29T06:06:56.830Z,1.95
2022-11-29T06:09:27.893Z,1.94
2022-11-29T06:12:02.530Z,1.96
2022-11-29T06:15:00.903Z,1.96
2022-11-29T06:17:58.039Z,1.98
2022-11-29T06:20:43.617Z,2.03
2022-11-29T06:23:11.248Z,2.04
2022-11-29T06:26:04.043Z,1.94
2022-11-29T06:28:46.250Z,1.99
2022-11-29T06:31:26.281Z,1.99
2022-11-29T06:34:09.868Z,1.88
2022-11-29T06:36:50.802Z,1.90
2022-11-29T06:39:17.898Z,1.87
2022-11-29T06:41:44.761Z,1.94
2022-11-29T06:44:11.641Z,1.93
2022-11-29T06:47:08.958Z,1.88
2022-11-29T06:49:35.412Z,1.93
2022-11-29T06:52:03.039Z,1.96
2022-11-29T06:54:45.401Z,1.95
2022-11-29T06:57:26.619Z,1.98
2022-11-29T07:00:16.437Z,2.00
2022-11-29T07:03:14.562Z,1.98
2022-11-29T07:05:41.618Z,1.97
2022-11-29T07:08:23.414Z,1.94
2022-11-29T07:10:54.055Z,1.94
2022-11-29T07:13:21.596Z,1.93
2022-11-29T07:15:55.765Z,1.93
2022-11-29T07:18:37.553Z,1.99
2022-11-29T07:21:10.837Z,1.99
2022-11-29T07:23:49.683Z,2.01
2022-11-29T07:26:29.471Z,1.91
2022-11-29T07:29:05.315Z,1.96
2022-11-29T07:31:48.123Z,1.97
2022-11-29T07:34:14.708Z,2.05
2022-11-29T07:36:58.307Z,2.03
2022-11-29T07:39:49.207Z,1.98
2022-11-29T07:42:39.314Z,1.95
2022-11-29T07:45:24.656Z,1.95
2022-11-29T07:47:51.655Z,1.90
2022-11-29T07:50:18.896Z,1.94
2022-11-29T07:52:46.323Z,1.98
2022-11-29T07:55:18.962Z,2.04
2022-11-29T07:57:46.622Z,2.05
2022-11-29T08:00:14.024Z,1.99
2022-11-29T08:02:41.474Z,2.02
2022-11-29T08:05:09.192Z,2.02
2022-11-29T08:07:38.036Z,2.04
2022-11-29T08:10:06.922Z,2.00
2022-11-29T08:12:33.655Z,2.02
2022-11-29T08:15:01.536Z,2.04
2022-11-29T08:17:28.415Z,2.06
2022-11-29T08:19:55.013Z,2.04
2022-11-29T08:22:21.669Z,2.06
2022-11-29T08:24:48.511Z,2.07
2022-11-29T08:27:15.380Z,2.11
2022-11-29T08:29:41.995Z,2.10
2022-11-29T08:32:09.134Z,2.17
2022-11-29T08:34:35.747Z,2.21
2022-11-29T08:37:02.367Z,2.15
2022-11-29T08:39:28.940Z,2.14
2022-11-29T08:41:55.764Z,2.17
2022-11-29T08:44:22.639Z,2.22
2022-11-29T08:47:04.621Z,2.17
2022-11-29T08:49:31.270Z,2.22
2022-11-29T08:52:17.807Z,2.22
2022-11-29T08:54:44.911Z,2.27
2022-11-29T08:57:41.552Z,2.27
2022-11-29T08:59:58.359Z,2.30
2022-11-29T09:02:25.152Z,2.20
2022-11-29T09:04:51.831Z,2.27
2022-11-29T09:07:18.507Z,2.28
2022-11-29T09:09:45.169Z,2.29
2022-11-29T09:12:11.802Z,2.37
2022-11-29T09:14:38.455Z,2.41
2022-11-29T09:17:05.083Z,2.39
2022-11-29T09:19:32.504Z,2.38
2022-11-29T09:21:59.142Z,2.45
2022-11-29T09:24:25.817Z,2.48
2022-11-29T09:26:52.436Z,2.45
2022-11-29T09:29:19.127Z,2.53
2022-11-29T09:31:45.907Z,2.42
2022-11-29T09:34:13.963Z,2.43
2022-11-29T09:36:40.920Z,2.46
2022-11-29T09:39:12.625Z,2.46
2022-11-29T09:41:48.992Z,2.51
2022-11-29T09:44:30.704Z,2.52
2022-11-29T09:47:35.908Z,2.57
2022-11-29T09:50:03.912Z,2.66
2022-11-29T09:52:46.624Z,2.64
2022-11-29T09:55:29.429Z,2.66
2022-11-29T09:57:58.383Z,2.73
2022-11-29T10:00:26.116Z,2.67
2022-11-29T10:03:00.741Z,2.64
2022-11-29T10:05:47.422Z,2.74
2022-11-29T10:08:24.033Z,2.71
2022-11-29T10:10:55.685Z,2.74
2022-11-29T10:13:28.759Z,2.76
2022-11-29T10:16:04.762Z,2.82
2022-11-29T10:18:38.474Z,2.81
2022-11-29T10:21:12.768Z,2.85
2022-11-29T10:23:46.484Z,2.85
2022-11-29T10:26:13.484Z,2.87
2022-11-29T10:28:44.988Z,2.90
2022-11-29T10:31:28.659Z,2.93
2022-11-29T10:33:59.187Z,3.07
2022-11-29T10:36:31.857Z,3.14
2022-11-29T10:39:02.988Z,3.29
2022-11-29T10:41:29.740Z,3.27
2022-11-29T10:43:59.121Z,3.27
2022-11-29T10:46:31.477Z,3.31
2022-11-29T10:49:01.101Z,3.38
2022-11-29T10:51:28.843Z,3.44
2022-11-29T10:53:56.165Z,3.55
2022-11-29T10:56:29.499Z,3.55
2022-11-29T10:59:06.190Z,3.70
2022-11-29T11:01:38.261Z,3.71
2022-11-29T11:04:09.954Z,3.73
2022-11-29T11:06:43.951Z,3.70
2022-11-29T11:09:30.089Z,3.66
2022-11-29T11:11:59.498Z,3.72
2022-11-29T11:14:30.034Z,3.80
2022-11-29T11:17:13.717Z,3.72
2022-11-29T11:19:40.465Z,3.78
2022-11-29T11:22:07.261Z,3.75
2022-11-29T11:24:40.157Z,3.74
2022-11-29T11:27:07.162Z,3.81
2022-11-29T11:29:39.783Z,3.82
2022-11-29T11:32:17.082Z,3.85
2022-11-29T11:34:59.166Z,3.89
2022-11-29T11:37:33.186Z,3.83
2022-11-29T11:40:18.948Z,3.87
2022-11-29T11:42:46.506Z,3.85
2022-11-29T11:45:13.083Z,3.73
2022-11-29T11:47:46.722Z,3.68
2022-11-29T11:50:16.652Z,3.64
2022-11-29T11:52:52.457Z,3.71
2022-11-29T11:55:30.666Z,3.87
2022-11-29T11:58:10.248Z,3.82
2022-11-29T12:01:09.410Z,3.74
2022-11-29T12:03:59.162Z,3.70
2022-11-29T12:06:31.489Z,3.87
2022-11-29T12:09:09.967Z,3.89
2022-11-29T12:11:47.920Z,3.83
2022-11-29T12:14:24.115Z,3.82
2022-11-29T12:17:00.214Z,3.84
2022-11-29T12:19:35.220Z,3.94
2022-11-29T12:22:08.648Z,3.99
2022-11-29T12:24:43.498Z,3.87
2022-11-29T12:27:14.958Z,3.81
2022-11-29T12:29:41.661Z,3.81
2022-11-29T12:32:32.520Z,3.79
2022-11-29T12:35:00.185Z,3.89
2022-11-29T12:37:40.346Z,3.94
2022-11-29T12:40:17.745Z,3.89
2022-11-29T12:43:03.391Z,3.93
2022-11-29T12:45:40.893Z,3.89
2022-11-29T12:48:27.427Z,3.84
2022-11-29T12:51:05.801Z,3.86
2022-11-29T12:54:07.715Z,3.88
2022-11-29T12:56:38.537Z,3.85
2022-11-29T12:59:33.366Z,3.83
2022-11-29T13:02:12.779Z,3.84
2022-11-29T13:04:45.991Z,3.84
2022-11-29T13:07:28.176Z,3.92
2022-11-29T13:10:16.416Z,4.03
2022-11-29T13:12:55.600Z,4.16
2022-11-29T13:15:36.198Z,4.21
2022-11-29T13:18:26.065Z,4.10
2022-11-29T13:21:01.542Z,4.01
2022-11-29T13:26:39.705Z,4.11
2022-11-29T13:29:12.611Z,4.09
2022-11-29T13:31:39.846Z,4.10
2022-11-29T13:34:07.653Z,4.07
2022-11-29T13:37:09.499Z,4.04
2022-11-29T13:40:01.351Z,4.09
2022-11-29T13:42:59.351Z,3.95
2022-11-29T13:45:26.931Z,3.96
2022-11-29T13:47:57.944Z,3.88
2022-11-29T13:50:39.775Z,3.95
2022-11-29T13:53:22.402Z,3.90
2022-11-29T13:56:00.874Z,3.90
2022-11-29T13:58:28.458Z,3.93
2022-11-29T14:01:01.657Z,4.05
2022-11-29T14:03:30.232Z,4.08
2022-11-29T14:06:12.434Z,4.06
2022-11-29T14:09:17.823Z,3.91
2022-11-29T14:11:42.280Z,3.84
2022-11-29T14:14:29.114Z,3.83
2022-11-29T14:17:01.422Z,3.77
2022-11-29T14:19:34.551Z,3.73
2022-11-29T14:22:02.216Z,3.78
2022-11-29T14:24:40.176Z,3.74
2022-11-29T14:27:06.877Z,3.70
2022-11-29T14:29:54.584Z,3.61
2022-11-29T14:32:51.739Z,3.66
2022-11-29T14:35:24.064Z,3.58
2022-11-29T14:38:16.346Z,3.69
2022-11-29T14:40:47.223Z,3.72
2022-11-29T14:43:30.061Z,3.63
2022-11-29T14:46:29.206Z,3.66
2022-11-29T14:48:56.293Z,3.78
2022-11-29T14:51:25.061Z,3.66
2022-11-29T14:54:13.456Z,3.58
2022-11-29T14:56:43.811Z,3.55
2022-11-29T14:59:41.206Z,3.64
2022-11-29T15:02:23.007Z,3.68
2022-11-29T15:04:52.486Z,3.60
2022-11-29T15:07:27.590Z,3.58
2022-11-29T15:09:58.532Z,3.63
2022-11-29T15:12:29.417Z,3.68
2022-11-29T15:15:06.675Z,3.59
2022-11-29T15:17:48.532Z,3.57
2022-11-29T15:20:35.040Z,3.47
2022-11-29T15:23:06.438Z,3.50
2022-11-29T15:25:34.106Z,3.53
2022-11-29T15:28:03.353Z,3.54
2022-11-29T15:30:37.104Z,3.45
2022-11-29T15:33:06.657Z,3.44
2022-11-29T15:35:35.866Z,3.40
2022-11-29T15:38:02.792Z,3.39
2022-11-29T15:40:35.301Z,3.38
2022-11-29T15:43:02.943Z,3.34
2022-11-29T15:45:33.538Z,3.34
2022-11-29T15:48:30.636Z,3.34
2022-11-29T15:51:28.316Z,3.42
2022-11-29T15:54:15.713Z,3.35
2022-11-29T15:56:54.641Z,3.36
2022-11-29T15:59:21.290Z,3.31
2022-11-29T16:01:51.492Z,3.30
2022-11-29T16:04:21.028Z,3.27
2022-11-29T16:06:49.556Z,3.24
2022-11-29T16:09:20.042Z,3.20
2022-11-29T16:11:48.405Z,3.17
2022-11-29T16:14:21.127Z,3.16
2022-11-29T16:16:52.454Z,3.12
2022-11-29T16:19:30.745Z,3.09
2022-11-29T16:22:14.841Z,3.05
2022-11-29T16:24:52.712Z,3.02
2022-11-29T16:27:21.064Z,3.01
2022-11-29T16:29:48.956Z,3.00
2022-11-29T16:32:26.279Z,2.97
2022-11-29T16:34:53.825Z,2.94
2022-11-29T16:37:26.611Z,2.92
2022-11-29T16:39:58.720Z,2.92
2022-11-29T16:42:29.321Z,2.88
2022-11-29T16:45:20.201Z,2.88
2022-11-29T16:47:59.551Z,2.88
2022-11-29T16:50:28.663Z,2.83
2022-11-29T16:52:57.012Z,2.84
2022-11-29T16:55:24.368Z,2.79
2022-11-29T16:57:52.203Z,2.79
2022-11-29T17:00:34.218Z,2.74
2022-11-29T17:03:00.854Z,2.74
2022-11-29T17:05:27.745Z,2.75
2022-11-29T17:07:55.052Z,2.66
2022-11-29T17:10:25.558Z,2.46
2022-11-29T17:12:55.795Z,2.55
2022-11-29T17:15:22.460Z,2.57
2022-11-29T17:17:49.103Z,2.56
2022-11-29T17:20:15.867Z,2.53
2022-11-29T17:22:42.542Z,2.44
2022-11-29T17:25:10.773Z,2.40
2022-11-29T17:27:37.461Z,2.25
2022-11-29T17:30:06.138Z,2.15
2022-11-29T17:32:35.774Z,2.14
2022-11-29T17:35:02.467Z,2.13
2022-11-29T17:37:30.162Z,2.18
2022-11-29T17:40:00.076Z,2.19
2022-11-29T17:42:30.076Z,2.19
2022-11-29T17:44:56.730Z,2.13
2022-11-29T17:47:23.476Z,2.14
2022-11-29T17:49:50.112Z,2.13
2022-11-29T17:52:16.779Z,1.99
2022-11-29T17:54:43.857Z,1.92
2022-11-29T17:57:10.463Z,1.83
2022-11-29T17:59:37.079Z,1.85
2022-11-29T18:02:04.303Z,1.66
2022-11-29T18:04:31.013Z,1.65
2022-11-29T18:06:57.867Z,1.75
2022-11-29T18:09:24.491Z,1.88
2022-11-29T18:11:51.217Z,1.84
2022-11-29T18:14:22.939Z,1.74
2022-11-29T18:16:50.178Z,1.64
2022-11-29T18:19:19.544Z,1.69
2022-11-29T18:21:46.704Z,1.77
2022-11-29T18:24:13.518Z,1.81
2022-11-29T18:26:41.416Z,1.82
2022-11-29T18:29:09.293Z,1.85
2022-11-29T18:31:38.705Z,1.64
2022-11-29T18:34:09.447Z,1.61
2022-11-29T18:36:39.334Z,1.49
2022-11-29T18:39:09.141Z,1.48
2022-11-29T18:41:36.988Z,1.40
2022-11-29T18:44:07.455Z,1.42
2022-11-29T18:46:37.182Z,1.46
2022-11-29T18:49:06.403Z,1.54
2022-11-29T18:51:37.813Z,1.59
2022-11-29T18:54:05.726Z,1.61
2022-11-29T18:56:34.841Z,1.55
2022-11-29T18:59:05.264Z,1.33
2022-11-29T19:01:35.700Z,1.35
2022-11-29T19:04:02.436Z,1.38
2022-11-29T19:06:39.002Z,1.20
2022-11-29T19:09:09.799Z,1.27
2022-11-29T19:11:36.478Z,1.30
2022-11-29T19:14:05.995Z,1.32
2022-11-29T19:16:34.599Z,1.31
2022-11-29T19:19:01.775Z,1.31
2022-11-29T19:21:31.825Z,1.30
2022-11-29T19:24:01.441Z,1.21
2022-11-29T19:26:30.544Z,1.23
2022-11-29T19:29:00.101Z,1.13
2022-11-29T19:31:28.521Z,1.16
2022-11-29T19:33:56.514Z,1.16
2022-11-29T19:36:24.333Z,1.12
2022-11-29T19:38:53.746Z,1.04
2022-11-29T19:41:21.002Z,0.85
2022-11-29T19:43:48.663Z,0.74
2022-11-29T19:46:19.063Z,0.75
2022-11-29T19:48:46.451Z,0.80
2022-11-29T19:51:17.753Z,0.75
2022-11-29T19:53:45.695Z,0.65
2022-11-29T19:56:16.708Z,0.72
2022-11-29T19:58:44.404Z,0.66
2022-11-29T20:01:14.263Z,0.58
2022-11-29T20:03:41.914Z,0.63
2022-11-29T20:06:09.842Z,0.56
2022-11-29T20:08:37.436Z,0.63
2022-11-29T20:11:10.622Z,0.60
2022-11-29T20:13:38.755Z,0.58
2022-11-29T20:16:09.866Z,0.44
2022-11-29T20:18:39.405Z,0.48
2022-11-29T20:21:10.842Z,0.46
2022-11-29T20:23:38.985Z,0.40
2022-11-29T20:26:08.104Z,0.27
2022-11-29T20:28:35.670Z,0.25
2022-11-29T20:31:14.175Z,0.21
2022-11-29T20:33:42.961Z,0.16
2022-11-29T20:36:32.658Z,0.20
2022-11-29T20:39:34.442Z,0.25
2022-11-29T20:42:36.179Z,0.14
2022-11-29T20:45:06.618Z,0.15
2022-11-29T20:47:50.462Z,0.14
2022-11-29T20:50:23.290Z,0.08
2022-11-29T20:53:03.213Z,0.11
2022-11-29T20:55:30.900Z,-0.04
2022-11-29T20:57:57.529Z,-0.10
2022-11-29T21:00:24.179Z,-0.05
2022-11-29T21:02:50.811Z,-0.15
2022-11-29T21:05:17.527Z,-0.08
2022-11-29T21:07:45.729Z,-0.07
2022-11-29T21:10:13.864Z,-0.23
2022-11-29T21:12:40.967Z,-0.30
2022-11-29T21:15:10.224Z,-0.19
2022-11-29T21:17:37.121Z,-0.14
2022-11-29T21:20:04.611Z,-0.26
2022-11-29T21:22:46.924Z,-0.21
2022-11-29T21:25:25.386Z,-0.26
2022-11-29T21:27:54.670Z,-0.26
2022-11-29T21:30:24.005Z,-0.35
2022-11-29T21:32:51.795Z,-0.39
2022-11-29T21:35:18.455Z,-0.30
2022-11-29T21:37:45.701Z,-0.34
2022-11-29T21:40:15.802Z,-0.36
2022-11-29T21:42:45.696Z,-0.43
2022-11-29T21:45:15.683Z,-0.36
2022-11-29T21:47:44.009Z,-0.36
2022-11-29T21:50:12.655Z,-0.33
2022-11-29T21:52:39.471Z,-0.40
2022-11-29T21:55:06.502Z,-0.51
2022-11-29T21:57:33.128Z,-0.44
2022-11-29T21:59:59.722Z,-0.40
2022-11-29T22:02:26.430Z,-0.41
2022-11-29T22:04:53.158Z,-0.38
2022-11-29T22:07:19.768Z,-0.36
2022-11-29T22:09:46.448Z,-0.34
2022-11-29T22:12:32.957Z,-0.41
2022-11-29T22:14:59.691Z,-0.49
2022-11-29T22:17:26.314Z,-0.52
2022-11-29T22:19:52.962Z,-0.70
2022-11-29T22:22:19.558Z,-0.60
2022-11-29T22:24:46.438Z,-0.49
2022-11-29T22:27:13.244Z,-0.45
2022-11-29T22:29:39.863Z,-0.37
2022-11-29T22:32:06.612Z,-0.36
2022-11-29T22:34:33.195Z,-0.36
2022-11-29T22:36:59.831Z,-0.37
2022-11-29T22:39:26.596Z,-0.37
2022-11-29T22:41:55.037Z,-0.35
2022-11-29T22:44:23.209Z,-0.38
2022-11-29T22:46:50.436Z,-0.36
2022-11-29T22:49:17.095Z,-0.40
2022-11-29T22:51:43.814Z,-0.44
2022-11-29T22:54:11.855Z,-0.36
2022-11-29T22:56:40.886Z,-0.42
2022-11-29T22:59:08.155Z,-0.34
2022-11-29T23:01:37.754Z,-0.35
2022-11-29T23:04:07.182Z,-0.49
2022-11-29T23:06:35.514Z,-0.37
2022-11-29T23:09:06.928Z,-0.34
2022-11-29T23:11:33.723Z,-0.32
2022-11-29T23:14:00.391Z,-0.46
2022-11-29T23:16:29.479Z,-0.36
2022-11-29T23:18:58.285Z,-0.33
2022-11-29T23:21:35.171Z,-0.34
2022-11-29T23:24:02.528Z,-0.33
2022-11-29T23:26:36.376Z,-0.31
2022-11-29T23:29:04.043Z,-0.29
2022-11-29T23:31:30.784Z,-0.20
2022-11-29T23:33:57.697Z,-0.34
2022-11-29T23:36:24.299Z,-0.33
2022-11-29T23:38:51.149Z,-0.28
2022-11-29T23:41:18.326Z,-0.31
2022-11-29T23:43:44.980Z,-0.33
2022-11-29T23:46:15.599Z,-0.39
2022-11-29T23:48:43.140Z,-0.27
2022-11-29T23:51:10.344Z,-0.37
2022-11-29T23:53:37.047Z,-0.34
2022-11-29T23:56:06.433Z,-0.28
2022-11-29T23:58:34.407Z,-0.21
